sensor_id;sensor_type;location;lat;lon;timestamp;P1;durP1;ratioP1;P2;durP2;ratioP2
151;SDS011;68;48.792;9.164;2023-06-19T00:00:46;25.23;;;12.13;;
151;SDS011;68;48.792;9.164;2023-06-19T00:03:12;28.30;;;12.30;;
151;SDS011;68;48.792;9.164;2023-06-19T00:05:39;24.47;;;11.47;;
151;SDS011;68;48.792;9.164;2023-06-19T00:08:07;29.30;;;12.37;;
151;SDS011;68;48.792;9.164;2023-06-19T00:10:34;26.30;;;12.00;;
151;SDS011;68;48.792;9.164;2023-06-19T00:13:01;27.97;;;11.63;;
151;SDS011;68;48.792;9.164;2023-06-19T00:15:28;31.43;;;12.47;;
151;SDS011;68;48.792;9.164;2023-06-19T00:17:55;29.10;;;13.03;;
151;SDS011;68;48.792;9.164;2023-06-19T00:20:23;25.10;;;11.70;;
151;SDS011;68;48.792;9.164;2023-06-19T00:22:50;30.73;;;11.20;;
151;SDS011;68;48.792;9.164;2023-06-19T00:25:19;29.23;;;11.80;;
151;SDS011;68;48.792;9.164;2023-06-19T00:27:46;32.83;;;12.20;;
151;SDS011;68;48.792;9.164;2023-06-19T00:30:13;27.00;;;12.00;;
151;SDS011;68;48.792;9.164;2023-06-19T00:32:40;30.73;;;11.60;;
151;SDS011;68;48.792;9.164;2023-06-19T00:35:12;24.40;;;11.10;;
151;SDS011;68;48.792;9.164;2023-06-19T00:37:40;27.30;;;11.63;;
151;SDS011;68;48.792;9.164;2023-06-19T00:40:10;23.37;;;10.47;;
151;SDS011;68;48.792;9.164;2023-06-19T00:42:43;24.80;;;10.47;;
151;SDS011;68;48.792;9.164;2023-06-19T00:45:10;24.00;;;10.37;;
151;SDS011;68;48.792;9.164;2023-06-19T00:47:37;29.10;;;10.80;;
151;SDS011;68;48.792;9.164;2023-06-19T00:50:04;27.97;;;10.30;;
151;SDS011;68;48.792;9.164;2023-06-19T00:52:32;22.53;;;9.47;;
151;SDS011;68;48.792;9.164;2023-06-19T00:54:59;25.80;;;10.30;;
151;SDS011;68;48.792;9.164;2023-06-19T00:57:27;24.57;;;10.50;;
151;SDS011;68;48.792;9.164;2023-06-19T00:59:55;23.57;;;10.20;;
151;SDS011;68;48.792;9.164;2023-06-19T01:02:23;26.70;;;10.70;;
151;SDS011;68;48.792;9.164;2023-06-19T01:04:50;23.60;;;10.87;;
151;SDS011;68;48.792;9.164;2023-06-19T01:07:18;26.17;;;11.20;;
151;SDS011;68;48.792;9.164;2023-06-19T01:09:50;22.87;;;9.67;;
151;SDS011;68;48.792;9.164;2023-06-19T01:12:19;27.53;;;10.87;;
151;SDS011;68;48.792;9.164;2023-06-19T01:14:50;29.50;;;10.87;;
151;SDS011;68;48.792;9.164;2023-06-19T01:17:22;25.27;;;10.30;;
151;SDS011;68;48.792;9.164;2023-06-19T01:19:49;27.97;;;10.10;;
151;SDS011;68;48.792;9.164;2023-06-19T01:22:24;26.10;;;9.90;;
151;SDS011;68;48.792;9.164;2023-06-19T01:24:52;24.27;;;10.30;;
151;SDS011;68;48.792;9.164;2023-06-19T01:27:19;23.87;;;9.50;;
151;SDS011;68;48.792;9.164;2023-06-19T01:29:45;27.97;;;10.43;;
151;SDS011;68;48.792;9.164;2023-06-19T01:32:13;25.57;;;9.57;;
151;SDS011;68;48.792;9.164;2023-06-19T01:34:45;22.30;;;9.47;;
151;SDS011;68;48.792;9.164;2023-06-19T01:37:15;23.43;;;9.00;;
151;SDS011;68;48.792;9.164;2023-06-19T01:39:44;26.30;;;9.00;;
151;SDS011;68;48.792;9.164;2023-06-19T01:42:12;30.00;;;8.90;;
151;SDS011;68;48.792;9.164;2023-06-19T01:44:40;22.70;;;8.43;;
151;SDS011;68;48.792;9.164;2023-06-19T01:47:08;23.93;;;8.77;;
151;SDS011;68;48.792;9.164;2023-06-19T01:49:36;24.20;;;9.00;;
151;SDS011;68;48.792;9.164;2023-06-19T01:52:03;22.97;;;8.43;;
151;SDS011;68;48.792;9.164;2023-06-19T01:54:30;22.10;;;8.20;;
151;SDS011;68;48.792;9.164;2023-06-19T01:56:58;20.73;;;8.53;;
151;SDS011;68;48.792;9.164;2023-06-19T01:59:25;21.53;;;8.57;;
151;SDS011;68;48.792;9.164;2023-06-19T02:01:52;23.57;;;9.00;;
151;SDS011;68;48.792;9.164;2023-06-19T02:04:18;27.50;;;9.13;;
151;SDS011;68;48.792;9.164;2023-06-19T02:06:45;22.73;;;9.13;;
151;SDS011;68;48.792;9.164;2023-06-19T02:09:12;22.77;;;8.87;;
151;SDS011;68;48.792;9.164;2023-06-19T02:11:39;21.10;;;8.77;;
151;SDS011;68;48.792;9.164;2023-06-19T02:14:08;21.83;;;8.03;;
151;SDS011;68;48.792;9.164;2023-06-19T02:16:36;25.43;;;8.20;;
151;SDS011;68;48.792;9.164;2023-06-19T02:19:02;25.07;;;9.00;;
151;SDS011;68;48.792;9.164;2023-06-19T02:21:30;20.90;;;8.33;;
151;SDS011;68;48.792;9.164;2023-06-19T02:23:56;21.40;;;8.30;;
151;SDS011;68;48.792;9.164;2023-06-19T02:26:23;19.80;;;7.70;;
151;SDS011;68;48.792;9.164;2023-06-19T02:28:52;21.83;;;8.20;;
151;SDS011;68;48.792;9.164;2023-06-19T02:31:20;23.23;;;8.30;;
151;SDS011;68;48.792;9.164;2023-06-19T02:33:47;23.50;;;8.13;;
151;SDS011;68;48.792;9.164;2023-06-19T02:36:14;19.70;;;7.63;;
151;SDS011;68;48.792;9.164;2023-06-19T02:38:44;21.83;;;8.17;;
151;SDS011;68;48.792;9.164;2023-06-19T02:41:11;20.57;;;8.20;;
151;SDS011;68;48.792;9.164;2023-06-19T02:43:38;22.40;;;8.50;;
151;SDS011;68;48.792;9.164;2023-06-19T02:46:05;20.17;;;7.53;;
151;SDS011;68;48.792;9.164;2023-06-19T02:48:33;22.63;;;8.13;;
151;SDS011;68;48.792;9.164;2023-06-19T02:51:00;22.03;;;8.23;;
151;SDS011;68;48.792;9.164;2023-06-19T02:53:27;22.93;;;9.33;;
151;SDS011;68;48.792;9.164;2023-06-19T02:55:54;22.90;;;8.13;;
151;SDS011;68;48.792;9.164;2023-06-19T02:58:21;25.20;;;8.10;;
151;SDS011;68;48.792;9.164;2023-06-19T03:00:47;22.23;;;8.70;;
151;SDS011;68;48.792;9.164;2023-06-19T03:03:14;20.60;;;7.60;;
151;SDS011;68;48.792;9.164;2023-06-19T03:05:43;21.60;;;7.40;;
151;SDS011;68;48.792;9.164;2023-06-19T03:08:09;21.50;;;8.50;;
151;SDS011;68;48.792;9.164;2023-06-19T03:10:36;20.97;;;8.67;;
151;SDS011;68;48.792;9.164;2023-06-19T03:13:03;22.77;;;8.63;;
151;SDS011;68;48.792;9.164;2023-06-19T03:15:30;21.93;;;8.47;;
151;SDS011;68;48.792;9.164;2023-06-19T03:17:56;20.10;;;7.60;;
151;SDS011;68;48.792;9.164;2023-06-19T03:20:23;21.60;;;8.50;;
151;SDS011;68;48.792;9.164;2023-06-19T03:22:51;20.37;;;8.10;;
151;SDS011;68;48.792;9.164;2023-06-19T03:25:19;20.13;;;7.80;;
151;SDS011;68;48.792;9.164;2023-06-19T03:27:46;22.37;;;8.60;;
151;SDS011;68;48.792;9.164;2023-06-19T03:30:13;20.10;;;7.80;;
151;SDS011;68;48.792;9.164;2023-06-19T03:32:43;20.63;;;7.20;;
151;SDS011;68;48.792;9.164;2023-06-19T03:35:10;19.80;;;7.33;;
151;SDS011;68;48.792;9.164;2023-06-19T03:37:36;19.70;;;7.60;;
151;SDS011;68;48.792;9.164;2023-06-19T03:40:05;19.60;;;7.47;;
151;SDS011;68;48.792;9.164;2023-06-19T03:42:34;20.30;;;7.70;;
151;SDS011;68;48.792;9.164;2023-06-19T03:45:01;19.40;;;7.23;;
151;SDS011;68;48.792;9.164;2023-06-19T03:47:27;20.40;;;7.03;;
151;SDS011;68;48.792;9.164;2023-06-19T03:49:54;19.17;;;6.70;;
151;SDS011;68;48.792;9.164;2023-06-19T03:52:21;22.27;;;6.63;;
151;SDS011;68;48.792;9.164;2023-06-19T03:54:47;21.27;;;7.20;;
151;SDS011;68;48.792;9.164;2023-06-19T03:57:16;18.47;;;6.30;;
151;SDS011;68;48.792;9.164;2023-06-19T03:59:42;20.10;;;6.53;;
151;SDS011;68;48.792;9.164;2023-06-19T04:02:09;20.00;;;6.30;;
151;SDS011;68;48.792;9.164;2023-06-19T04:04:36;19.23;;;6.53;;
151;SDS011;68;48.792;9.164;2023-06-19T04:07:03;18.37;;;6.10;;
151;SDS011;68;48.792;9.164;2023-06-19T04:09:30;18.07;;;6.43;;
151;SDS011;68;48.792;9.164;2023-06-19T04:11:56;18.17;;;5.93;;
151;SDS011;68;48.792;9.164;2023-06-19T04:14:24;19.90;;;6.90;;
151;SDS011;68;48.792;9.164;2023-06-19T04:16:51;18.67;;;6.17;;
151;SDS011;68;48.792;9.164;2023-06-19T04:19:18;18.40;;;6.40;;
151;SDS011;68;48.792;9.164;2023-06-19T04:21:44;18.60;;;6.23;;
151;SDS011;68;48.792;9.164;2023-06-19T04:24:11;19.57;;;7.10;;
151;SDS011;68;48.792;9.164;2023-06-19T04:26:38;18.00;;;5.70;;
151;SDS011;68;48.792;9.164;2023-06-19T04:29:07;18.93;;;6.20;;
151;SDS011;68;48.792;9.164;2023-06-19T04:31:43;22.10;;;6.30;;
151;SDS011;68;48.792;9.164;2023-06-19T04:34:12;18.20;;;6.13;;
151;SDS011;68;48.792;9.164;2023-06-19T04:36:39;19.50;;;6.50;;
151;SDS011;68;48.792;9.164;2023-06-19T04:39:06;19.10;;;6.90;;
151;SDS011;68;48.792;9.164;2023-06-19T04:41:33;21.13;;;6.30;;
151;SDS011;68;48.792;9.164;2023-06-19T04:44:03;18.73;;;6.00;;
151;SDS011;68;48.792;9.164;2023-06-19T04:46:31;24.70;;;6.50;;
151;SDS011;68;48.792;9.164;2023-06-19T04:48:59;18.30;;;6.40;;
151;SDS011;68;48.792;9.164;2023-06-19T04:51:28;19.77;;;6.83;;
151;SDS011;68;48.792;9.164;2023-06-19T04:53:55;19.47;;;7.00;;
151;SDS011;68;48.792;9.164;2023-06-19T04:56:22;18.50;;;6.00;;
151;SDS011;68;48.792;9.164;2023-06-19T04:58:49;19.67;;;6.57;;
151;SDS011;68;48.792;9.164;2023-06-19T05:01:16;19.00;;;6.73;;
151;SDS011;68;48.792;9.164;2023-06-19T05:03:47;18.67;;;6.50;;
151;SDS011;68;48.792;9.164;2023-06-19T05:06:15;18.20;;;6.50;;
151;SDS011;68;48.792;9.164;2023-06-19T05:08:43;18.67;;;6.50;;
151;SDS011;68;48.792;9.164;2023-06-19T05:11:09;19.50;;;7.00;;
151;SDS011;68;48.792;9.164;2023-06-19T05:13:36;21.27;;;7.83;;
151;SDS011;68;48.792;9.164;2023-06-19T05:16:03;20.20;;;6.40;;
151;SDS011;68;48.792;9.164;2023-06-19T05:18:30;20.20;;;6.47;;
151;SDS011;68;48.792;9.164;2023-06-19T05:20:56;19.60;;;6.50;;
151;SDS011;68;48.792;9.164;2023-06-19T05:23:24;17.80;;;5.90;;
151;SDS011;68;48.792;9.164;2023-06-19T05:25:51;18.27;;;6.40;;
151;SDS011;68;48.792;9.164;2023-06-19T05:28:18;19.60;;;6.43;;
151;SDS011;68;48.792;9.164;2023-06-19T05:30:45;18.73;;;6.40;;
151;SDS011;68;48.792;9.164;2023-06-19T05:33:11;17.70;;;6.00;;
151;SDS011;68;48.792;9.164;2023-06-19T05:35:40;19.23;;;6.20;;
151;SDS011;68;48.792;9.164;2023-06-19T05:38:08;19.70;;;7.47;;
151;SDS011;68;48.792;9.164;2023-06-19T05:40:36;20.77;;;6.93;;
151;SDS011;68;48.792;9.164;2023-06-19T05:43:02;20.70;;;6.57;;
151;SDS011;68;48.792;9.164;2023-06-19T05:45:29;20.33;;;6.90;;
151;SDS011;68;48.792;9.164;2023-06-19T05:47:56;18.63;;;6.57;;
151;SDS011;68;48.792;9.164;2023-06-19T05:50:24;19.70;;;6.20;;
151;SDS011;68;48.792;9.164;2023-06-19T05:52:51;17.90;;;5.80;;
151;SDS011;68;48.792;9.164;2023-06-19T05:55:17;19.40;;;6.50;;
151;SDS011;68;48.792;9.164;2023-06-19T05:57:46;18.07;;;6.20;;
151;SDS011;68;48.792;9.164;2023-06-19T06:00:13;17.93;;;6.43;;
151;SDS011;68;48.792;9.164;2023-06-19T06:02:40;19.13;;;6.73;;
151;SDS011;68;48.792;9.164;2023-06-19T06:05:07;17.27;;;5.83;;
151;SDS011;68;48.792;9.164;2023-06-19T06:07:35;17.57;;;5.37;;
151;SDS011;68;48.792;9.164;2023-06-19T06:10:02;17.67;;;5.60;;
151;SDS011;68;48.792;9.164;2023-06-19T06:12:29;19.80;;;6.60;;
151;SDS011;68;48.792;9.164;2023-06-19T06:14:57;17.90;;;6.10;;
151;SDS011;68;48.792;9.164;2023-06-19T06:17:23;21.00;;;5.97;;
151;SDS011;68;48.792;9.164;2023-06-19T06:19:50;18.90;;;6.93;;
151;SDS011;68;48.792;9.164;2023-06-19T06:22:17;18.50;;;6.13;;
151;SDS011;68;48.792;9.164;2023-06-19T06:24:44;18.10;;;6.17;;
151;SDS011;68;48.792;9.164;2023-06-19T06:27:11;18.30;;;6.67;;
151;SDS011;68;48.792;9.164;2023-06-19T06:29:38;18.07;;;6.20;;
151;SDS011;68;48.792;9.164;2023-06-19T06:32:07;18.40;;;6.47;;
151;SDS011;68;48.792;9.164;2023-06-19T06:34:34;17.37;;;5.87;;
151;SDS011;68;48.792;9.164;2023-06-19T06:37:01;18.10;;;6.33;;
151;SDS011;68;48.792;9.164;2023-06-19T06:39:28;18.03;;;6.23;;
151;SDS011;68;48.792;9.164;2023-06-19T06:41:55;18.10;;;6.20;;
151;SDS011;68;48.792;9.164;2023-06-19T06:44:22;17.98;;;5.30;;
151;SDS011;68;48.792;9.164;2023-06-19T06:46:49;18.73;;;6.03;;
151;SDS011;68;48.792;9.164;2023-06-19T06:49:17;17.70;;;6.00;;
151;SDS011;68;48.792;9.164;2023-06-19T06:51:45;17.53;;;5.93;;
151;SDS011;68;48.792;9.164;2023-06-19T06:54:11;17.70;;;4.97;;
151;SDS011;68;48.792;9.164;2023-06-19T06:56:38;18.70;;;5.07;;
151;SDS011;68;48.792;9.164;2023-06-19T06:59:05;17.10;;;5.33;;
151;SDS011;68;48.792;9.164;2023-06-19T07:01:32;18.27;;;5.90;;
151;SDS011;68;48.792;9.164;2023-06-19T07:03:58;16.90;;;4.70;;
151;SDS011;68;48.792;9.164;2023-06-19T07:06:26;16.70;;;4.90;;
151;SDS011;68;48.792;9.164;2023-06-19T07:08:53;22.53;;;5.53;;
151;SDS011;68;48.792;9.164;2023-06-19T07:11:20;17.70;;;5.33;;
151;SDS011;68;48.792;9.164;2023-06-19T07:13:47;17.50;;;5.03;;
151;SDS011;68;48.792;9.164;2023-06-19T07:16:13;23.00;;;6.07;;
151;SDS011;68;48.792;9.164;2023-06-19T07:18:40;18.30;;;5.13;;
151;SDS011;68;48.792;9.164;2023-06-19T07:21:08;19.70;;;5.40;;
151;SDS011;68;48.792;9.164;2023-06-19T07:23:40;18.90;;;5.73;;
151;SDS011;68;48.792;9.164;2023-06-19T07:26:07;18.67;;;5.13;;
151;SDS011;68;48.792;9.164;2023-06-19T07:28:33;18.33;;;4.97;;
151;SDS011;68;48.792;9.164;2023-06-19T07:31:01;16.70;;;4.90;;
151;SDS011;68;48.792;9.164;2023-06-19T07:33:28;17.70;;;5.57;;
151;SDS011;68;48.792;9.164;2023-06-19T07:35:55;17.53;;;4.97;;
151;SDS011;68;48.792;9.164;2023-06-19T07:38:22;16.70;;;4.63;;
151;SDS011;68;48.792;9.164;2023-06-19T07:40:50;17.00;;;5.27;;
151;SDS011;68;48.792;9.164;2023-06-19T07:43:17;19.77;;;5.33;;
151;SDS011;68;48.792;9.164;2023-06-19T07:45:44;19.50;;;5.07;;
151;SDS011;68;48.792;9.164;2023-06-19T07:48:10;17.40;;;5.10;;
151;SDS011;68;48.792;9.164;2023-06-19T07:50:37;17.57;;;4.90;;
151;SDS011;68;48.792;9.164;2023-06-19T07:53:04;15.63;;;4.13;;
151;SDS011;68;48.792;9.164;2023-06-19T07:55:30;16.50;;;5.00;;
151;SDS011;68;48.792;9.164;2023-06-19T07:58:01;17.30;;;5.30;;
151;SDS011;68;48.792;9.164;2023-06-19T08:00:28;17.33;;;4.90;;
151;SDS011;68;48.792;9.164;2023-06-19T08:02:54;27.43;;;5.50;;
151;SDS011;68;48.792;9.164;2023-06-19T08:05:21;16.83;;;5.00;;
151;SDS011;68;48.792;9.164;2023-06-19T08:07:48;20.40;;;5.03;;
151;SDS011;68;48.792;9.164;2023-06-19T08:10:15;17.47;;;4.80;;
151;SDS011;68;48.792;9.164;2023-06-19T08:12:42;18.30;;;5.27;;
151;SDS011;68;48.792;9.164;2023-06-19T08:15:11;23.07;;;5.40;;
151;SDS011;68;48.792;9.164;2023-06-19T08:17:39;17.67;;;5.00;;
151;SDS011;68;48.792;9.164;2023-06-19T08:20:06;19.37;;;5.20;;
151;SDS011;68;48.792;9.164;2023-06-19T08:22:34;17.00;;;5.10;;
151;SDS011;68;48.792;9.164;2023-06-19T08:25:02;20.20;;;5.40;;
151;SDS011;68;48.792;9.164;2023-06-19T08:27:29;17.53;;;4.67;;
151;SDS011;68;48.792;9.164;2023-06-19T08:29:56;17.60;;;4.70;;
151;SDS011;68;48.792;9.164;2023-06-19T08:32:24;21.97;;;5.83;;
151;SDS011;68;48.792;9.164;2023-06-19T08:34:51;17.40;;;5.23;;
151;SDS011;68;48.792;9.164;2023-06-19T08:37:18;17.43;;;4.97;;
151;SDS011;68;48.792;9.164;2023-06-19T08:39:45;25.17;;;5.77;;
151;SDS011;68;48.792;9.164;2023-06-19T08:42:12;20.93;;;5.07;;
151;SDS011;68;48.792;9.164;2023-06-19T08:44:39;17.30;;;5.03;;
151;SDS011;68;48.792;9.164;2023-06-19T08:47:06;17.80;;;5.60;;
151;SDS011;68;48.792;9.164;2023-06-19T08:49:36;23.33;;;5.40;;
151;SDS011;68;48.792;9.164;2023-06-19T08:52:03;19.13;;;5.83;;
151;SDS011;68;48.792;9.164;2023-06-19T08:54:31;18.23;;;5.43;;
151;SDS011;68;48.792;9.164;2023-06-19T08:56:59;17.50;;;4.80;;
151;SDS011;68;48.792;9.164;2023-06-19T08:59:26;16.80;;;4.90;;
151;SDS011;68;48.792;9.164;2023-06-19T09:01:54;19.33;;;5.97;;
151;SDS011;68;48.792;9.164;2023-06-19T09:04:21;17.90;;;5.37;;
151;SDS011;68;48.792;9.164;2023-06-19T09:06:53;17.37;;;5.00;;
151;SDS011;68;48.792;9.164;2023-06-19T09:09:22;17.80;;;5.27;;
151;SDS011;68;48.792;9.164;2023-06-19T09:11:56;19.87;;;5.30;;
151;SDS011;68;48.792;9.164;2023-06-19T09:14:27;17.20;;;5.13;;
151;SDS011;68;48.792;9.164;2023-06-19T09:16:57;18.27;;;5.30;;
151;SDS011;68;48.792;9.164;2023-06-19T09:19:24;18.80;;;5.23;;
151;SDS011;68;48.792;9.164;2023-06-19T09:21:52;18.03;;;5.47;;
151;SDS011;68;48.792;9.164;2023-06-19T09:24:19;19.47;;;4.87;;
151;SDS011;68;48.792;9.164;2023-06-19T09:26:46;16.90;;;5.10;;
151;SDS011;68;48.792;9.164;2023-06-19T09:29:13;17.13;;;4.80;;
151;SDS011;68;48.792;9.164;2023-06-19T09:31:43;18.67;;;4.90;;
151;SDS011;68;48.792;9.164;2023-06-19T09:34:10;17.30;;;4.83;;
151;SDS011;68;48.792;9.164;2023-06-19T09:36:36;19.70;;;5.50;;
151;SDS011;68;48.792;9.164;2023-06-19T09:39:05;17.10;;;5.00;;
151;SDS011;68;48.792;9.164;2023-06-19T09:41:32;17.63;;;5.20;;
151;SDS011;68;48.792;9.164;2023-06-19T09:44:02;20.27;;;5.23;;
151;SDS011;68;48.792;9.164;2023-06-19T09:46:37;18.77;;;5.57;;
151;SDS011;68;48.792;9.164;2023-06-19T09:49:07;18.30;;;5.97;;
151;SDS011;68;48.792;9.164;2023-06-19T09:51:37;19.17;;;5.20;;
151;SDS011;68;48.792;9.164;2023-06-19T09:54:08;19.00;;;5.67;;
151;SDS011;68;48.792;9.164;2023-06-19T09:56:36;22.17;;;6.50;;
151;SDS011;68;48.792;9.164;2023-06-19T09:59:05;19.80;;;5.90;;
151;SDS011;68;48.792;9.164;2023-06-19T10:01:34;18.07;;;5.30;;
151;SDS011;68;48.792;9.164;2023-06-19T10:04:03;19.80;;;6.10;;
151;SDS011;68;48.792;9.164;2023-06-19T10:06:31;18.20;;;5.70;;
151;SDS011;68;48.792;9.164;2023-06-19T10:09:05;19.07;;;5.63;;
151;SDS011;68;48.792;9.164;2023-06-19T10:11:48;19.03;;;5.63;;
151;SDS011;68;48.792;9.164;2023-06-19T10:14:17;19.70;;;5.63;;
151;SDS011;68;48.792;9.164;2023-06-19T10:16:44;18.63;;;6.00;;
151;SDS011;68;48.792;9.164;2023-06-19T10:19:11;19.57;;;6.07;;
151;SDS011;68;48.792;9.164;2023-06-19T10:21:43;18.00;;;5.67;;
151;SDS011;68;48.792;9.164;2023-06-19T10:24:13;25.40;;;5.77;;
151;SDS011;68;48.792;9.164;2023-06-19T10:26:43;17.50;;;5.60;;
151;SDS011;68;48.792;9.164;2023-06-19T10:29:14;22.73;;;6.43;;
151;SDS011;68;48.792;9.164;2023-06-19T10:31:42;20.70;;;6.10;;
151;SDS011;68;48.792;9.164;2023-06-19T10:34:09;20.50;;;5.90;;
151;SDS011;68;48.792;9.164;2023-06-19T10:36:37;18.70;;;5.30;;
151;SDS011;68;48.792;9.164;2023-06-19T10:39:03;23.30;;;5.73;;
151;SDS011;68;48.792;9.164;2023-06-19T10:41:32;18.60;;;5.60;;
151;SDS011;68;48.792;9.164;2023-06-19T10:43:59;19.33;;;5.80;;
151;SDS011;68;48.792;9.164;2023-06-19T10:46:29;23.03;;;5.50;;
151;SDS011;68;48.792;9.164;2023-06-19T10:48:57;18.50;;;5.37;;
151;SDS011;68;48.792;9.164;2023-06-19T10:51:26;18.80;;;5.63;;
151;SDS011;68;48.792;9.164;2023-06-19T10:53:53;19.50;;;6.03;;
151;SDS011;68;48.792;9.164;2023-06-19T10:56:21;21.00;;;6.10;;
151;SDS011;68;48.792;9.164;2023-06-19T10:58:55;21.77;;;6.07;;
151;SDS011;68;48.792;9.164;2023-06-19T11:01:32;18.70;;;5.30;;
151;SDS011;68;48.792;9.164;2023-06-19T11:04:01;18.37;;;5.43;;
151;SDS011;68;48.792;9.164;2023-06-19T11:06:30;19.57;;;6.30;;
151;SDS011;68;48.792;9.164;2023-06-19T11:08:57;18.60;;;6.20;;
151;SDS011;68;48.792;9.164;2023-06-19T11:11:33;17.90;;;5.73;;
151;SDS011;68;48.792;9.164;2023-06-19T11:14:01;18.33;;;5.93;;
151;SDS011;68;48.792;9.164;2023-06-19T11:16:28;18.90;;;5.93;;
151;SDS011;68;48.792;9.164;2023-06-19T11:18:57;17.93;;;5.60;;
151;SDS011;68;48.792;9.164;2023-06-19T11:21:29;18.40;;;5.53;;
151;SDS011;68;48.792;9.164;2023-06-19T11:23:58;18.77;;;5.53;;
151;SDS011;68;48.792;9.164;2023-06-19T11:26:25;19.07;;;5.90;;
151;SDS011;68;48.792;9.164;2023-06-19T11:28:52;19.73;;;6.10;;
151;SDS011;68;48.792;9.164;2023-06-19T11:31:24;19.53;;;5.77;;
151;SDS011;68;48.792;9.164;2023-06-19T11:33:56;18.80;;;5.23;;
151;SDS011;68;48.792;9.164;2023-06-19T11:36:24;23.93;;;6.00;;
151;SDS011;68;48.792;9.164;2023-06-19T11:38:54;19.73;;;6.17;;
151;SDS011;68;48.792;9.164;2023-06-19T11:41:24;19.40;;;5.93;;
151;SDS011;68;48.792;9.164;2023-06-19T11:43:57;19.13;;;6.37;;
151;SDS011;68;48.792;9.164;2023-06-19T11:46:28;18.37;;;5.77;;
151;SDS011;68;48.792;9.164;2023-06-19T11:49:00;19.20;;;5.90;;
151;SDS011;68;48.792;9.164;2023-06-19T11:51:33;19.90;;;6.03;;
151;SDS011;68;48.792;9.164;2023-06-19T11:54:00;18.20;;;5.50;;
151;SDS011;68;48.792;9.164;2023-06-19T11:56:28;20.43;;;6.00;;
151;SDS011;68;48.792;9.164;2023-06-19T11:58:55;17.93;;;5.20;;
151;SDS011;68;48.792;9.164;2023-06-19T12:01:22;21.70;;;5.23;;
151;SDS011;68;48.792;9.164;2023-06-19T12:03:48;20.70;;;5.60;;
151;SDS011;68;48.792;9.164;2023-06-19T12:06:17;19.17;;;5.93;;
151;SDS011;68;48.792;9.164;2023-06-19T12:08:44;18.20;;;5.37;;
151;SDS011;68;48.792;9.164;2023-06-19T12:11:11;22.77;;;5.90;;
151;SDS011;68;48.792;9.164;2023-06-19T12:13:38;21.53;;;5.83;;
151;SDS011;68;48.792;9.164;2023-06-19T12:16:05;27.00;;;5.80;;
151;SDS011;68;48.792;9.164;2023-06-19T12:18:32;19.30;;;6.20;;
151;SDS011;68;48.792;9.164;2023-06-19T12:20:59;20.10;;;5.20;;
151;SDS011;68;48.792;9.164;2023-06-19T12:23:28;19.00;;;6.07;;
151;SDS011;68;48.792;9.164;2023-06-19T12:25:56;17.53;;;5.53;;
151;SDS011;68;48.792;9.164;2023-06-19T12:28:22;21.43;;;6.47;;
151;SDS011;68;48.792;9.164;2023-06-19T12:30:50;18.17;;;5.40;;
151;SDS011;68;48.792;9.164;2023-06-19T12:33:21;22.93;;;6.10;;
151;SDS011;68;48.792;9.164;2023-06-19T12:35:47;23.20;;;6.10;;
151;SDS011;68;48.792;9.164;2023-06-19T12:38:14;19.70;;;5.90;;
151;SDS011;68;48.792;9.164;2023-06-19T12:40:44;20.40;;;5.60;;
151;SDS011;68;48.792;9.164;2023-06-19T12:43:11;19.10;;;5.40;;
151;SDS011;68;48.792;9.164;2023-06-19T12:45:37;19.80;;;6.00;;
151;SDS011;68;48.792;9.164;2023-06-19T12:48:06;21.93;;;5.90;;
151;SDS011;68;48.792;9.164;2023-06-19T12:50:32;19.30;;;6.10;;
151;SDS011;68;48.792;9.164;2023-06-19T12:52:59;22.30;;;5.87;;
151;SDS011;68;48.792;9.164;2023-06-19T12:55:26;19.07;;;6.30;;
151;SDS011;68;48.792;9.164;2023-06-19T12:57:54;20.30;;;6.30;;
151;SDS011;68;48.792;9.164;2023-06-19T13:00:21;17.90;;;5.87;;
151;SDS011;68;48.792;9.164;2023-06-19T13:02:47;18.77;;;6.00;;
151;SDS011;68;48.792;9.164;2023-06-19T13:05:14;18.40;;;6.20;;
151;SDS011;68;48.792;9.164;2023-06-19T13:07:41;20.50;;;5.97;;
151;SDS011;68;48.792;9.164;2023-06-19T13:10:08;24.93;;;6.90;;
151;SDS011;68;48.792;9.164;2023-06-19T13:12:35;19.10;;;6.27;;
151;SDS011;68;48.792;9.164;2023-06-19T13:15:04;21.50;;;6.00;;
151;SDS011;68;48.792;9.164;2023-06-19T13:17:32;20.17;;;5.77;;
151;SDS011;68;48.792;9.164;2023-06-19T13:19:58;19.33;;;5.83;;
151;SDS011;68;48.792;9.164;2023-06-19T13:22:25;19.70;;;6.20;;
151;SDS011;68;48.792;9.164;2023-06-19T13:24:52;18.33;;;6.00;;
151;SDS011;68;48.792;9.164;2023-06-19T13:27:19;18.90;;;6.50;;
151;SDS011;68;48.792;9.164;2023-06-19T13:29:45;18.97;;;6.30;;
151;SDS011;68;48.792;9.164;2023-06-19T13:32:14;19.20;;;5.87;;
151;SDS011;68;48.792;9.164;2023-06-19T13:34:40;19.73;;;5.80;;
151;SDS011;68;48.792;9.164;2023-06-19T13:37:08;21.23;;;5.87;;
151;SDS011;68;48.792;9.164;2023-06-19T13:39:35;18.63;;;5.73;;
151;SDS011;68;48.792;9.164;2023-06-19T13:42:05;19.83;;;5.63;;
151;SDS011;68;48.792;9.164;2023-06-19T13:44:32;19.27;;;6.17;;
151;SDS011;68;48.792;9.164;2023-06-19T13:46:58;18.80;;;5.83;;
151;SDS011;68;48.792;9.164;2023-06-19T13:49:27;18.40;;;5.77;;
151;SDS011;68;48.792;9.164;2023-06-19T13:51:54;18.30;;;5.23;;
151;SDS011;68;48.792;9.164;2023-06-19T13:54:21;19.03;;;5.20;;
151;SDS011;68;48.792;9.164;2023-06-19T13:56:48;18.37;;;5.60;;
151;SDS011;68;48.792;9.164;2023-06-19T13:59:16;21.63;;;6.60;;
151;SDS011;68;48.792;9.164;2023-06-19T14:01:43;18.37;;;5.70;;
151;SDS011;68;48.792;9.164;2023-06-19T14:04:10;20.23;;;6.60;;
151;SDS011;68;48.792;9.164;2023-06-19T14:06:38;18.93;;;6.10;;
151;SDS011;68;48.792;9.164;2023-06-19T14:09:07;22.37;;;5.73;;
151;SDS011;68;48.792;9.164;2023-06-19T14:11:34;20.37;;;6.23;;
151;SDS011;68;48.792;9.164;2023-06-19T14:14:01;19.63;;;6.27;;
151;SDS011;68;48.792;9.164;2023-06-19T14:16:27;19.73;;;5.20;;
151;SDS011;68;48.792;9.164;2023-06-19T14:18:54;18.00;;;5.87;;
151;SDS011;68;48.792;9.164;2023-06-19T14:21:21;18.13;;;5.80;;
151;SDS011;68;48.792;9.164;2023-06-19T14:23:49;18.43;;;5.93;;
151;SDS011;68;48.792;9.164;2023-06-19T14:26:16;19.90;;;5.83;;
151;SDS011;68;48.792;9.164;2023-06-19T14:28:43;18.63;;;6.13;;
151;SDS011;68;48.792;9.164;2023-06-19T14:31:09;18.73;;;5.70;;
151;SDS011;68;48.792;9.164;2023-06-19T14:33:37;18.60;;;5.77;;
151;SDS011;68;48.792;9.164;2023-06-19T14:36:03;19.87;;;6.20;;
151;SDS011;68;48.792;9.164;2023-06-19T14:38:30;19.90;;;6.00;;
151;SDS011;68;48.792;9.164;2023-06-19T14:41:00;19.57;;;5.80;;
151;SDS011;68;48.792;9.164;2023-06-19T14:43:27;20.30;;;5.77;;
151;SDS011;68;48.792;9.164;2023-06-19T14:45:55;19.20;;;6.00;;
151;SDS011;68;48.792;9.164;2023-06-19T14:48:22;19.37;;;5.50;;
151;SDS011;68;48.792;9.164;2023-06-19T14:50:48;21.23;;;6.13;;
151;SDS011;68;48.792;9.164;2023-06-19T14:53:15;21.30;;;5.83;;
151;SDS011;68;48.792;9.164;2023-06-19T14:55:42;18.97;;;5.90;;
151;SDS011;68;48.792;9.164;2023-06-19T14:58:12;19.00;;;5.97;;
151;SDS011;68;48.792;9.164;2023-06-19T15:00:39;19.23;;;6.40;;
151;SDS011;68;48.792;9.164;2023-06-19T15:03:06;18.23;;;5.57;;
151;SDS011;68;48.792;9.164;2023-06-19T15:05:33;20.47;;;5.73;;
151;SDS011;68;48.792;9.164;2023-06-19T15:07:59;18.70;;;5.70;;
151;SDS011;68;48.792;9.164;2023-06-19T15:10:28;20.67;;;5.87;;
151;SDS011;68;48.792;9.164;2023-06-19T15:12:55;18.17;;;5.70;;
151;SDS011;68;48.792;9.164;2023-06-19T15:15:23;18.53;;;5.77;;
151;SDS011;68;48.792;9.164;2023-06-19T15:17:50;18.50;;;5.80;;
151;SDS011;68;48.792;9.164;2023-06-19T15:20:16;18.77;;;5.80;;
151;SDS011;68;48.792;9.164;2023-06-19T15:22:45;18.10;;;5.70;;
151;SDS011;68;48.792;9.164;2023-06-19T15:25:12;22.30;;;6.17;;
151;SDS011;68;48.792;9.164;2023-06-19T15:27:39;21.37;;;6.07;;
151;SDS011;68;48.792;9.164;2023-06-19T15:30:06;21.37;;;5.90;;
151;SDS011;68;48.792;9.164;2023-06-19T15:32:35;19.57;;;5.80;;
151;SDS011;68;48.792;9.164;2023-06-19T15:35:02;18.80;;;6.10;;
151;SDS011;68;48.792;9.164;2023-06-19T15:37:29;18.37;;;5.97;;
151;SDS011;68;48.792;9.164;2023-06-19T15:39:56;20.50;;;5.70;;
151;SDS011;68;48.792;9.164;2023-06-19T15:42:22;21.33;;;5.43;;
151;SDS011;68;48.792;9.164;2023-06-19T15:44:49;17.57;;;5.53;;
151;SDS011;68;48.792;9.164;2023-06-19T15:47:16;17.87;;;5.60;;